Maran Pythia — SVAQ5 — position and weather

sailwx.info

Track history (hours):
 
Tides and Currents Weather Stations Pressure Air Temp Water Temp Dewpoint Dewpoint Depression Visibility Wind Speed Wind Dir Waves Ship Positions

Maran Pythia

Last reported at 2017-Aug-09 00:51 UTC. Time now 2017-Aug-16 13:17 UTC.
Position N 29°22' W 094°48'.

Length 275 m; draft 12.5 m.

Type: Ship (hazmat cat A). MMSI: 240893000.

Date/timePositionNaut miles runAvg speedWind from/ knotsBaromVisibWave heightAir tempDewpointWater temp
2017-Aug-09 00:51N 29°22' W 094°48'410.4
2017-Aug-09 00:30N 29°26' W 094°50'510.5
2017-Aug-09 00:00N 29°30' W 094°52'5 9.9
2017-Aug-08 23:30N 29°34' W 094°56'5 9.6
2017-Aug-08 23:00N 29°39' W 094°58'4 7.6
2017-Aug-08 22:30N 29°42' W 095°00'3 5.9
2017-Aug-08 22:00N 29°44' W 095°03'3 5.6
2017-Aug-08 21:30N 29°46' W 095°05'2 4.2
2017-Aug-08 21:00N 29°44' W 095°07'0 0.1
2017-Aug-08 19:31N 29°44' W 095°07'0 0.0
2017-Aug-08 18:04N 29°44' W 095°07'0 0.1
2017-Aug-08 18:01N 29°44' W 095°07'0 0.0
2017-Aug-08 17:25N 29°44' W 095°07'0 0.0
2017-Aug-08 16:01N 29°44' W 095°07'0 0.0
2017-Aug-08 15:55N 29°44' W 095°07'0 0.0
2017-Aug-08 15:28N 29°44' W 095°07'0 0.0
2017-Aug-08 14:19N 29°44' W 095°07'0 0.0
2017-Aug-08 13:55N 29°44' W 095°07'0 0.0
2017-Aug-08 13:25N 29°44' W 095°07'0 0.0
2017-Aug-08 12:55N 29°44' W 095°07'0 0.0
2017-Aug-06 21:34N 29°44' W 095°07'0 0.0
2017-Aug-06 21:10N 29°44' W 095°07'0 0.0
2017-Aug-06 20:46N 29°44' W 095°07'0 0.1
2017-Aug-06 20:28N 29°44' W 095°07'0 0.0
2017-Aug-06 18:58N 29°44' W 095°07'0 0.0
2017-Aug-06 18:16N 29°44' W 095°07'0 0.0
2017-Aug-06 17:58N 29°44' W 095°07'0 0.0
2017-Aug-06 17:28N 29°44' W 095°07'0 0.0
2017-Aug-06 16:58N 29°44' W 095°07'0 0.0
2017-Aug-06 13:28N 29°44' W 095°07'0 0.0
2017-Aug-06 12:40N 29°44' W 095°07'0 0.0
2017-Aug-06 12:28N 29°44' W 095°07'0 0.0
2017-Aug-06 11:58N 29°44' W 095°07'0 0.0
2017-Aug-06 11:22N 29°44' W 095°07'0 0.0
2017-Aug-06 09:16N 29°44' W 095°07'0 0.0
2017-Aug-06 08:46N 29°44' W 095°07'0 0.0
2017-Aug-06 08:16N 29°44' W 095°07'0 0.0
2017-Aug-06 07:40N 29°44' W 095°07'0 0.0
2017-Aug-06 07:28N 29°44' W 095°07'0 0.0
2017-Aug-06 06:58N 29°44' W 095°07'0 0.0
2017-Aug-06 06:28N 29°44' W 095°07'0 0.0
2017-Aug-06 05:34N 29°44' W 095°07'0 0.1
2017-Aug-06 05:28N 29°44' W 095°07'0 0.0
2017-Aug-06 05:00N 29°44' W 095°07'0 0.0
2017-Aug-06 04:29N 29°44' W 095°07'0 0.0
2017-Aug-06 03:58N 29°44' W 095°07'0 0.0
2017-Aug-06 03:27N 29°44' W 095°07'0 0.0
2017-Aug-06 03:00N 29°44' W 095°07'0 0.0
2017-Aug-06 02:30N 29°44' W 095°07'0 0.0
2017-Aug-06 02:00N 29°44' W 095°07'0 0.0
2017-Aug-06 01:28N 29°44' W 095°07'0 0.0
2017-Aug-06 01:00N 29°44' W 095°07'0 0.0
2017-Aug-06 00:30N 29°44' W 095°07'0 0.0
2017-Aug-06 00:00N 29°44' W 095°07'0 0.0
2017-Aug-05 23:29N 29°44' W 095°07'0 0.0
2017-Aug-05 23:00N 29°44' W 095°07'0 0.0
2017-Aug-05 22:30N 29°44' W 095°07'0 0.0
2017-Aug-05 21:59N 29°44' W 095°07'0 0.0
2017-Aug-05 21:30N 29°44' W 095°07'0 0.0
2017-Aug-05 21:00N 29°44' W 095°07'0 0.0
2017-Aug-05 20:30N 29°44' W 095°07'0 0.0
2017-Aug-05 20:00N 29°44' W 095°07'0 0.0
2017-Aug-05 19:30N 29°44' W 095°07'0 0.1
2017-Aug-05 19:00N 29°44' W 095°07'1 2.5
2017-Aug-05 18:30N 29°45' W 095°06'2 4.4
2017-Aug-05 18:00N 29°44' W 095°04'3 6.4
2017-Aug-05 17:31N 29°42' W 095°01'5 9.2
2017-Aug-05 17:00N 29°38' W 094°58'611.7
2017-Aug-05 16:30N 29°33' W 094°55'612.4
2017-Aug-05 16:00N 29°28' W 094°51'612.8
2017-Aug-05 15:30N 29°22' W 094°48'  
Track history (hours):
 
Tides and Currents Weather Stations Pressure Air Temp Water Temp Dewpoint Dewpoint Depression Visibility Wind Speed Wind Dir Waves Ship Positions

Maran Pythia

Last reported at 2017-Aug-09 00:51 UTC. Time now 2017-Aug-16 13:17 UTC.
Position N 29°22' W 094°48'.

Length 275 m; draft 12.5 m.

Type: Ship (hazmat cat A). MMSI: 240893000.

Date/timePositionNaut miles runAvg speedWind from/ knotsBaromVisibWave heightAir tempDewpointWater temp
2017-Aug-09 00:51N 29°22' W 094°48'410.4
2017-Aug-09 00:30N 29°26' W 094°50'510.5
2017-Aug-09 00:00N 29°30' W 094°52'5 9.9
2017-Aug-08 23:30N 29°34' W 094°56'5 9.6
2017-Aug-08 23:00N 29°39' W 094°58'4 7.6
2017-Aug-08 22:30N 29°42' W 095°00'3 5.9
2017-Aug-08 22:00N 29°44' W 095°03'3 5.6
2017-Aug-08 21:30N 29°46' W 095°05'2 4.2
2017-Aug-08 21:00N 29°44' W 095°07'0 0.1
2017-Aug-08 19:31N 29°44' W 095°07'0 0.0
2017-Aug-08 18:04N 29°44' W 095°07'0 0.1
2017-Aug-08 18:01N 29°44' W 095°07'0 0.0
2017-Aug-08 17:25N 29°44' W 095°07'0 0.0
2017-Aug-08 16:01N 29°44' W 095°07'0 0.0
2017-Aug-08 15:55N 29°44' W 095°07'0 0.0
2017-Aug-08 15:28N 29°44' W 095°07'0 0.0
2017-Aug-08 14:19N 29°44' W 095°07'0 0.0
2017-Aug-08 13:55N 29°44' W 095°07'0 0.0
2017-Aug-08 13:25N 29°44' W 095°07'0 0.0
2017-Aug-08 12:55N 29°44' W 095°07'0 0.0
2017-Aug-06 21:34N 29°44' W 095°07'0 0.0
2017-Aug-06 21:10N 29°44' W 095°07'0 0.0
2017-Aug-06 20:46N 29°44' W 095°07'0 0.1
2017-Aug-06 20:28N 29°44' W 095°07'0 0.0
2017-Aug-06 18:58N 29°44' W 095°07'0 0.0
2017-Aug-06 18:16N 29°44' W 095°07'0 0.0
2017-Aug-06 17:58N 29°44' W 095°07'0 0.0
2017-Aug-06 17:28N 29°44' W 095°07'0 0.0
2017-Aug-06 16:58N 29°44' W 095°07'0 0.0
2017-Aug-06 13:28N 29°44' W 095°07'0 0.0
2017-Aug-06 12:40N 29°44' W 095°07'0 0.0
2017-Aug-06 12:28N 29°44' W 095°07'0 0.0
2017-Aug-06 11:58N 29°44' W 095°07'0 0.0
2017-Aug-06 11:22N 29°44' W 095°07'0 0.0
2017-Aug-06 09:16N 29°44' W 095°07'0 0.0
2017-Aug-06 08:46N 29°44' W 095°07'0 0.0
2017-Aug-06 08:16N 29°44' W 095°07'0 0.0
2017-Aug-06 07:40N 29°44' W 095°07'0 0.0
2017-Aug-06 07:28N 29°44' W 095°07'0 0.0
2017-Aug-06 06:58N 29°44' W 095°07'0 0.0
2017-Aug-06 06:28N 29°44' W 095°07'0 0.0
2017-Aug-06 05:34N 29°44' W 095°07'0 0.1
2017-Aug-06 05:28N 29°44' W 095°07'0 0.0
2017-Aug-06 05:00N 29°44' W 095°07'0 0.0
2017-Aug-06 04:29N 29°44' W 095°07'0 0.0
2017-Aug-06 03:58N 29°44' W 095°07'0 0.0
2017-Aug-06 03:27N 29°44' W 095°07'0 0.0
2017-Aug-06 03:00N 29°44' W 095°07'0 0.0
2017-Aug-06 02:30N 29°44' W 095°07'0 0.0
2017-Aug-06 02:00N 29°44' W 095°07'0 0.0
2017-Aug-06 01:28N 29°44' W 095°07'0 0.0
2017-Aug-06 01:00N 29°44' W 095°07'0 0.0
2017-Aug-06 00:30N 29°44' W 095°07'0 0.0
2017-Aug-06 00:00N 29°44' W 095°07'0 0.0
2017-Aug-05 23:29N 29°44' W 095°07'0 0.0
2017-Aug-05 23:00N 29°44' W 095°07'0 0.0
2017-Aug-05 22:30N 29°44' W 095°07'0 0.0
2017-Aug-05 21:59N 29°44' W 095°07'0 0.0
2017-Aug-05 21:30N 29°44' W 095°07'0 0.0
2017-Aug-05 21:00N 29°44' W 095°07'0 0.0
2017-Aug-05 20:30N 29°44' W 095°07'0 0.0
2017-Aug-05 20:00N 29°44' W 095°07'0 0.0
2017-Aug-05 19:30N 29°44' W 095°07'0 0.1
2017-Aug-05 19:00N 29°44' W 095°07'1 2.5
2017-Aug-05 18:30N 29°45' W 095°06'2 4.4
2017-Aug-05 18:00N 29°44' W 095°04'3 6.4
2017-Aug-05 17:31N 29°42' W 095°01'5 9.2
2017-Aug-05 17:00N 29°38' W 094°58'611.7
2017-Aug-05 16:30N 29°33' W 094°55'612.4
2017-Aug-05 16:00N 29°28' W 094°51'612.8
2017-Aug-05 15:30N 29°22' W 094°48'  

Dump ship's entire track history